KJTC

Springerville Municipal Airport

Springerville, Arizona, USA
METAR KJTC 210655Z AUTO 23006KT 10SM CLR 09/M14 A3011 RMK AO2
Observed Flight Rules
May-21 @ 06:55 UTC (6 minutes ago) Visual Flight Rules
Wind Visibility Clouds
230° at 6 knots 10 miles
  • Clear skies
Temperatures Readings
Current 9°C / 48°F
Dewpoint -14°C / 7°F
Humidity 18%
Altimeter 30.11" Hg
Pressure 1020 hPa
Elevation 2150
METAR KJTC 210655Z AUTO 23006KT 10SM CLR 09/M14 A3011 RMK AO2
Observed Flight Rules
May-21 @ 06:55 UTC
(6 minutes ago)
VFR
Wind Visibility
230° at 6 knots 10 miles
Clouds
  • Clear skies
Temperature Dewpoint
9°C / 48°F -14°C / 7°F
Humidity Altimeter Pressure
18% 30.11" Hg 1020 hPa